sensor_id;sensor_type;location;lat;lon;timestamp;pressure;altitude;pressure_sealevel;temperature;humidity
39491;BME280;25175;50.140;18.990;2023-05-19T00:02:38;99442.97;;;8.59;68.50
39491;BME280;25175;50.140;18.990;2023-05-19T00:05:56;99435.78;;;8.53;68.55
39491;BME280;25175;50.140;18.990;2023-05-19T00:09:08;99442.06;;;8.44;68.76
39491;BME280;25175;50.140;18.990;2023-05-19T00:12:14;99434.91;;;8.38;69.14
39491;BME280;25175;50.140;18.990;2023-05-19T00:15:24;99423.16;;;8.26;69.33
39491;BME280;25175;50.140;18.990;2023-05-19T00:18:30;99427.56;;;8.33;69.26
39491;BME280;25175;50.140;18.990;2023-05-19T00:24:58;99417.31;;;8.24;69.51
39491;BME280;25175;50.140;18.990;2023-05-19T00:28:04;99420.09;;;8.22;69.68
39491;BME280;25175;50.140;18.990;2023-05-19T00:31:42;99419.75;;;8.25;69.83
39491;BME280;25175;50.140;18.990;2023-05-19T00:34:48;99414.38;;;8.27;69.84
39491;BME280;25175;50.140;18.990;2023-05-19T00:38:00;98990.06;;;5.60;69.56
39491;BME280;25175;50.140;18.990;2023-05-19T00:41:06;99416.97;;;8.27;69.70
39491;BME280;25175;50.140;18.990;2023-05-19T00:44:12;99405.69;;;8.26;69.55
39491;BME280;25175;50.140;18.990;2023-05-19T00:47:48;99409.47;;;8.24;69.47
39491;BME280;25175;50.140;18.990;2023-05-19T00:51:08;99401.00;;;8.22;69.67
39491;BME280;25175;50.140;18.990;2023-05-19T00:54:35;99394.16;;;8.13;69.63
39491;BME280;25175;50.140;18.990;2023-05-19T00:57:59;99402.31;;;8.18;69.77
39491;BME280;25175;50.140;18.990;2023-05-19T01:01:27;99401.31;;;8.19;69.90
39491;BME280;25175;50.140;18.990;2023-05-19T01:04:53;99398.00;;;8.25;70.09
39491;BME280;25175;50.140;18.990;2023-05-19T01:12:09;99378.06;;;8.32;69.28
39491;BME280;25175;50.140;18.990;2023-05-19T01:15:39;99388.53;;;8.32;69.18
39491;BME280;25175;50.140;18.990;2023-05-19T01:19:29;99390.94;;;8.33;69.49
39491;BME280;25175;50.140;18.990;2023-05-19T01:23:25;99383.41;;;8.38;69.32
39491;BME280;25175;50.140;18.990;2023-05-19T01:27:17;99368.53;;;8.39;69.34
39491;BME280;25175;50.140;18.990;2023-05-19T01:30:59;99364.47;;;8.36;69.27
39491;BME280;25175;50.140;18.990;2023-05-19T01:34:22;99355.72;;;8.21;69.38
39491;BME280;25175;50.140;18.990;2023-05-19T01:37:54;99381.94;;;8.36;69.19
39491;BME280;25175;50.140;18.990;2023-05-19T01:41:17;99379.78;;;8.39;69.37
39491;BME280;25175;50.140;18.990;2023-05-19T01:44:41;99374.41;;;8.41;69.37
39491;BME280;25175;50.140;18.990;2023-05-19T01:48:06;99339.56;;;8.18;69.00
39491;BME280;25175;50.140;18.990;2023-05-19T01:51:35;99367.38;;;8.41;69.07
39491;BME280;25175;50.140;18.990;2023-05-19T01:54:56;99373.41;;;8.42;69.00
39491;BME280;25175;50.140;18.990;2023-05-19T01:58:22;99366.38;;;8.42;69.28
39491;BME280;25175;50.140;18.990;2023-05-19T02:01:53;99368.38;;;8.40;69.20
39491;BME280;25175;50.140;18.990;2023-05-19T02:05:30;99356.00;;;8.34;69.00
39491;BME280;25175;50.140;18.990;2023-05-19T02:08:54;99349.63;;;8.29;69.30
39491;BME280;25175;50.140;18.990;2023-05-19T02:12:10;99350.94;;;8.25;69.54
39491;BME280;25175;50.140;18.990;2023-05-19T02:15:41;99360.16;;;8.21;69.63
39491;BME280;25175;50.140;18.990;2023-05-19T02:18:50;99294.66;;;7.84;69.52
39491;BME280;25175;50.140;18.990;2023-05-19T02:21:58;99294.09;;;7.66;69.84
39491;BME280;25175;50.140;18.990;2023-05-19T02:25:05;99345.13;;;8.15;69.94
39491;BME280;25175;50.140;18.990;2023-05-19T02:28:15;99352.00;;;8.16;70.05
39491;BME280;25175;50.140;18.990;2023-05-19T02:31:24;99349.84;;;8.19;70.07
39491;BME280;25175;50.140;18.990;2023-05-19T02:34:31;99349.97;;;8.26;70.04
39491;BME280;25175;50.140;18.990;2023-05-19T02:37:42;99341.31;;;8.25;69.78
39491;BME280;25175;50.140;18.990;2023-05-19T02:40:50;99357.53;;;8.43;69.61
39491;BME280;25175;50.140;18.990;2023-05-19T02:44:07;99373.00;;;8.53;69.28
39491;BME280;25175;50.140;18.990;2023-05-19T02:47:13;99327.16;;;8.42;69.10
39491;BME280;25175;50.140;18.990;2023-05-19T02:50:20;99338.47;;;8.65;68.86
39491;BME280;25175;50.140;18.990;2023-05-19T02:53:31;99340.44;;;8.63;68.65
39491;BME280;25175;50.140;18.990;2023-05-19T02:56:40;99347.31;;;8.64;68.71
39491;BME280;25175;50.140;18.990;2023-05-19T02:59:50;99345.78;;;8.70;68.79
39491;BME280;25175;50.140;18.990;2023-05-19T03:03:13;98986.66;;;6.46;68.41
39491;BME280;25175;50.140;18.990;2023-05-19T03:06:45;99346.28;;;8.73;68.48
39491;BME280;25175;50.140;18.990;2023-05-19T03:10:09;99340.53;;;8.70;68.21
39491;BME280;25175;50.140;18.990;2023-05-19T03:13:29;99351.91;;;8.62;68.77
39491;BME280;25175;50.140;18.990;2023-05-19T03:17:29;99347.06;;;8.51;68.76
39491;BME280;25175;50.140;18.990;2023-05-19T03:20:51;99340.69;;;8.46;69.22
39491;BME280;25175;50.140;18.990;2023-05-19T03:24:12;99304.41;;;8.20;69.29
39491;BME280;25175;50.140;18.990;2023-05-19T03:27:21;99330.94;;;8.40;69.58
39491;BME280;25175;50.140;18.990;2023-05-19T03:30:26;99332.09;;;8.37;69.67
39491;BME280;25175;50.140;18.990;2023-05-19T03:33:46;99307.84;;;8.21;69.79
39491;BME280;25175;50.140;18.990;2023-05-19T03:36:53;99343.84;;;8.41;70.03
39491;BME280;25175;50.140;18.990;2023-05-19T03:39:59;99339.78;;;8.39;69.83
39491;BME280;25175;50.140;18.990;2023-05-19T03:43:28;99349.19;;;8.17;69.69
39491;BME280;25175;50.140;18.990;2023-05-19T03:46:38;99343.19;;;8.39;69.69
39491;BME280;25175;50.140;18.990;2023-05-19T03:49:58;99372.38;;;8.51;69.68
39491;BME280;25175;50.140;18.990;2023-05-19T03:53:24;99372.72;;;8.56;69.59
39491;BME280;25175;50.140;18.990;2023-05-19T03:56:30;99368.56;;;8.61;69.44
39491;BME280;25175;50.140;18.990;2023-05-19T03:59:39;99371.03;;;8.63;69.74
39491;BME280;25175;50.140;18.990;2023-05-19T04:02:50;99367.88;;;8.67;69.50
39491;BME280;25175;50.140;18.990;2023-05-19T04:06:11;99370.16;;;8.70;69.81
39491;BME280;25175;50.140;18.990;2023-05-19T04:09:40;99360.81;;;8.76;69.60
39491;BME280;25175;50.140;18.990;2023-05-19T04:13:01;99368.47;;;8.77;69.47
39491;BME280;25175;50.140;18.990;2023-05-19T04:16:24;99369.91;;;8.80;69.60
39491;BME280;25175;50.140;18.990;2023-05-19T04:19:45;99367.13;;;8.81;69.33
39491;BME280;25175;50.140;18.990;2023-05-19T04:23:05;99371.22;;;8.84;69.51
39491;BME280;25175;50.140;18.990;2023-05-19T04:26:27;99370.03;;;8.86;69.48
39491;BME280;25175;50.140;18.990;2023-05-19T04:29:54;99370.34;;;8.91;69.26
39491;BME280;25175;50.140;18.990;2023-05-19T04:33:03;99335.31;;;8.70;69.35
39491;BME280;25175;50.140;18.990;2023-05-19T04:36:09;99374.41;;;8.94;69.56
39491;BME280;25175;50.140;18.990;2023-05-19T04:39:18;99369.97;;;8.94;69.14
39491;BME280;25175;50.140;18.990;2023-05-19T04:42:26;99370.63;;;8.96;69.53
39491;BME280;25175;50.140;18.990;2023-05-19T04:45:36;99313.38;;;8.48;69.49
39491;BME280;25175;50.140;18.990;2023-05-19T04:48:50;99366.31;;;9.03;69.68
39491;BME280;25175;50.140;18.990;2023-05-19T04:52:01;99366.75;;;9.07;69.72
39491;BME280;25175;50.140;18.990;2023-05-19T04:55:08;99371.00;;;9.08;69.49
39491;BME280;25175;50.140;18.990;2023-05-19T04:58:15;99370.03;;;9.09;69.32
39491;BME280;25175;50.140;18.990;2023-05-19T05:01:23;99370.28;;;9.14;69.64
39491;BME280;25175;50.140;18.990;2023-05-19T05:04:35;99371.56;;;9.18;69.31
39491;BME280;25175;50.140;18.990;2023-05-19T05:07:45;99374.84;;;9.20;69.18
39491;BME280;25175;50.140;18.990;2023-05-19T05:10:52;99362.22;;;9.23;69.32
39491;BME280;25175;50.140;18.990;2023-05-19T05:14:14;99371.13;;;9.29;69.21
39491;BME280;25175;50.140;18.990;2023-05-19T05:17:41;99378.28;;;9.35;69.31
39491;BME280;25175;50.140;18.990;2023-05-19T05:21:06;99374.16;;;9.40;69.38
39491;BME280;25175;50.140;18.990;2023-05-19T05:24:27;99367.75;;;9.43;69.47
39491;BME280;25175;50.140;18.990;2023-05-19T05:27:50;99373.06;;;9.49;69.38
39491;BME280;25175;50.140;18.990;2023-05-19T05:30:56;99366.38;;;9.47;69.16
39491;BME280;25175;50.140;18.990;2023-05-19T05:34:02;99330.84;;;9.30;69.03
39491;BME280;25175;50.140;18.990;2023-05-19T05:37:11;99390.78;;;9.62;68.61
39491;BME280;25175;50.140;18.990;2023-05-19T05:40:17;99385.56;;;9.62;68.64
39491;BME280;25175;50.140;18.990;2023-05-19T05:43:24;99392.88;;;9.66;68.77
39491;BME280;25175;50.140;18.990;2023-05-19T05:46:34;99383.81;;;9.69;69.16
39491;BME280;25175;50.140;18.990;2023-05-19T05:49:43;99393.13;;;9.71;68.78
39491;BME280;25175;50.140;18.990;2023-05-19T05:52:54;99391.97;;;9.74;68.51
39491;BME280;25175;50.140;18.990;2023-05-19T05:56:04;99382.75;;;9.78;68.42
39491;BME280;25175;50.140;18.990;2023-05-19T05:59:18;99392.94;;;9.81;68.68
39491;BME280;25175;50.140;18.990;2023-05-19T06:02:24;99373.91;;;9.79;68.84
39491;BME280;25175;50.140;18.990;2023-05-19T06:05:32;99385.56;;;9.91;68.42
39491;BME280;25175;50.140;18.990;2023-05-19T06:08:41;99380.97;;;9.78;68.55
39491;BME280;25175;50.140;18.990;2023-05-19T06:11:47;99396.34;;;9.96;68.08
39491;BME280;25175;50.140;18.990;2023-05-19T06:14:53;99386.75;;;9.88;68.05
39491;BME280;25175;50.140;18.990;2023-05-19T06:18:16;99430.19;;;10.05;67.68
39491;BME280;25175;50.140;18.990;2023-05-19T06:21:23;99396.53;;;10.09;67.85
39491;BME280;25175;50.140;18.990;2023-05-19T06:24:33;99398.78;;;10.12;67.92
39491;BME280;25175;50.140;18.990;2023-05-19T06:27:40;99399.22;;;10.15;67.89
39491;BME280;25175;50.140;18.990;2023-05-19T06:30:45;99403.09;;;10.19;67.40
39491;BME280;25175;50.140;18.990;2023-05-19T06:34:25;99400.31;;;10.21;67.12
39491;BME280;25175;50.140;18.990;2023-05-19T06:37:48;99398.47;;;10.21;67.07
39491;BME280;25175;50.140;18.990;2023-05-19T06:41:15;99380.84;;;10.15;67.32
39491;BME280;25175;50.140;18.990;2023-05-19T06:44:44;99384.22;;;10.09;67.16
39491;BME280;25175;50.140;18.990;2023-05-19T06:48:17;99393.78;;;10.17;67.38
39491;BME280;25175;50.140;18.990;2023-05-19T06:51:38;99403.81;;;10.28;67.53
39491;BME280;25175;50.140;18.990;2023-05-19T06:54:53;99399.84;;;10.32;67.11
39491;BME280;25175;50.140;18.990;2023-05-19T06:58:01;99404.69;;;10.35;67.04
39491;BME280;25175;50.140;18.990;2023-05-19T07:01:10;99407.97;;;10.37;67.07
39491;BME280;25175;50.140;18.990;2023-05-19T07:04:22;99412.47;;;10.43;67.20
39491;BME280;25175;50.140;18.990;2023-05-19T07:07:28;99403.25;;;10.47;66.50
39491;BME280;25175;50.140;18.990;2023-05-19T07:10:50;99401.44;;;10.47;66.27
39491;BME280;25175;50.140;18.990;2023-05-19T07:14:14;99390.13;;;10.47;66.44
39491;BME280;25175;50.140;18.990;2023-05-19T07:17:35;99401.59;;;10.46;66.51
39491;BME280;25175;50.140;18.990;2023-05-19T07:20:55;99391.75;;;10.48;66.57
39491;BME280;25175;50.140;18.990;2023-05-19T07:24:19;99403.31;;;10.53;66.69
39491;BME280;25175;50.140;18.990;2023-05-19T07:27:26;99397.88;;;10.55;65.88
39491;BME280;25175;50.140;18.990;2023-05-19T07:30:33;99390.25;;;10.60;66.20
39491;BME280;25175;50.140;18.990;2023-05-19T07:33:40;99398.22;;;10.66;66.15
39491;BME280;25175;50.140;18.990;2023-05-19T07:36:47;99390.53;;;10.65;66.15
39491;BME280;25175;50.140;18.990;2023-05-19T07:39:53;99395.28;;;10.76;66.34
39491;BME280;25175;50.140;18.990;2023-05-19T07:43:19;99407.66;;;10.82;66.11
39491;BME280;25175;50.140;18.990;2023-05-19T07:46:42;99411.91;;;10.83;65.88
39491;BME280;25175;50.140;18.990;2023-05-19T07:49:50;99405.03;;;10.82;65.56
39491;BME280;25175;50.140;18.990;2023-05-19T07:52:56;99413.28;;;10.79;65.47
39491;BME280;25175;50.140;18.990;2023-05-19T07:56:02;99369.63;;;10.57;65.76
39491;BME280;25175;50.140;18.990;2023-05-19T07:59:07;99407.47;;;10.83;65.63
39491;BME280;25175;50.140;18.990;2023-05-19T08:02:16;99404.91;;;10.90;65.73
39491;BME280;25175;50.140;18.990;2023-05-19T08:05:21;99409.47;;;10.96;65.61
39491;BME280;25175;50.140;18.990;2023-05-19T08:08:27;99408.47;;;10.97;65.06
39491;BME280;25175;50.140;18.990;2023-05-19T08:11:34;99404.66;;;10.99;65.59
39491;BME280;25175;50.140;18.990;2023-05-19T08:14:40;99410.16;;;11.04;65.53
39491;BME280;25175;50.140;18.990;2023-05-19T08:17:47;99412.81;;;11.11;65.69
39491;BME280;25175;50.140;18.990;2023-05-19T08:20:56;99391.19;;;11.09;64.66
39491;BME280;25175;50.140;18.990;2023-05-19T08:24:04;99416.38;;;11.24;65.19
39491;BME280;25175;50.140;18.990;2023-05-19T08:27:11;99415.59;;;11.30;65.02
39491;BME280;25175;50.140;18.990;2023-05-19T08:30:31;99428.75;;;11.30;64.85
39491;BME280;25175;50.140;18.990;2023-05-19T08:33:41;99416.63;;;11.29;64.56
39491;BME280;25175;50.140;18.990;2023-05-19T08:36:47;99424.91;;;11.26;64.24
39491;BME280;25175;50.140;18.990;2023-05-19T08:39:57;99417.97;;;11.19;64.01
39491;BME280;25175;50.140;18.990;2023-05-19T08:43:06;99410.84;;;11.13;64.87
39491;BME280;25175;50.140;18.990;2023-05-19T08:46:28;99429.13;;;11.27;64.41
39491;BME280;25175;50.140;18.990;2023-05-19T08:49:43;99446.34;;;11.30;64.57
39491;BME280;25175;50.140;18.990;2023-05-19T08:53:09;99428.06;;;11.43;64.15
39491;BME280;25175;50.140;18.990;2023-05-19T08:56:21;99427.69;;;11.46;64.10
39491;BME280;25175;50.140;18.990;2023-05-19T08:59:28;99412.88;;;11.45;63.61
39491;BME280;25175;50.140;18.990;2023-05-19T09:02:36;99448.97;;;11.57;63.49
39491;BME280;25175;50.140;18.990;2023-05-19T09:06:00;99422.88;;;11.56;63.15
39491;BME280;25175;50.140;18.990;2023-05-19T09:09:06;99423.28;;;11.53;63.71
39491;BME280;25175;50.140;18.990;2023-05-19T09:12:19;99431.41;;;11.58;63.68
39491;BME280;25175;50.140;18.990;2023-05-19T09:15:26;99428.19;;;11.62;63.89
39491;BME280;25175;50.140;18.990;2023-05-19T09:18:32;99440.38;;;11.70;64.06
39491;BME280;25175;50.140;18.990;2023-05-19T09:21:41;99433.34;;;11.77;63.91
39491;BME280;25175;50.140;18.990;2023-05-19T09:24:47;99442.50;;;11.81;63.58
39491;BME280;25175;50.140;18.990;2023-05-19T09:27:55;99433.63;;;11.88;63.48
39491;BME280;25175;50.140;18.990;2023-05-19T09:31:16;99429.22;;;11.95;63.42
39491;BME280;25175;50.140;18.990;2023-05-19T09:34:40;99433.94;;;12.00;63.57
39491;BME280;25175;50.140;18.990;2023-05-19T09:38:03;99433.56;;;12.03;63.23
39491;BME280;25175;50.140;18.990;2023-05-19T09:41:26;99435.16;;;12.04;63.39
39491;BME280;25175;50.140;18.990;2023-05-19T09:44:49;99424.88;;;12.09;63.24
39491;BME280;25175;50.140;18.990;2023-05-19T09:48:09;99419.66;;;12.15;63.16
39491;BME280;25175;50.140;18.990;2023-05-19T09:51:15;99416.81;;;12.17;62.71
39491;BME280;25175;50.140;18.990;2023-05-19T09:54:26;99417.44;;;12.19;62.70
39491;BME280;25175;50.140;18.990;2023-05-19T09:57:39;99402.63;;;12.11;62.72
39491;BME280;25175;50.140;18.990;2023-05-19T10:00:45;99394.31;;;12.08;63.26
39491;BME280;25175;50.140;18.990;2023-05-19T10:03:52;99410.56;;;12.24;62.80
39491;BME280;25175;50.140;18.990;2023-05-19T10:07:04;99417.91;;;12.29;63.02
39491;BME280;25175;50.140;18.990;2023-05-19T10:10:14;99412.22;;;12.32;62.85
39491;BME280;25175;50.140;18.990;2023-05-19T10:13:21;99405.53;;;12.29;63.47
39491;BME280;25175;50.140;18.990;2023-05-19T10:16:49;99405.38;;;12.37;62.77
39491;BME280;25175;50.140;18.990;2023-05-19T10:19:57;99400.31;;;12.36;62.91
39491;BME280;25175;50.140;18.990;2023-05-19T10:23:06;99404.41;;;12.45;62.43
39491;BME280;25175;50.140;18.990;2023-05-19T10:26:20;99412.91;;;12.47;62.31
39491;BME280;25175;50.140;18.990;2023-05-19T10:29:47;99434.19;;;12.52;62.77
39491;BME280;25175;50.140;18.990;2023-05-19T10:33:15;99408.69;;;12.59;62.22
39491;BME280;25175;50.140;18.990;2023-05-19T10:36:37;99406.69;;;12.67;62.73
39491;BME280;25175;50.140;18.990;2023-05-19T10:39:50;99404.69;;;12.76;62.80
39491;BME280;25175;50.140;18.990;2023-05-19T10:43:14;99406.75;;;12.80;62.04
39491;BME280;25175;50.140;18.990;2023-05-19T10:46:32;99402.06;;;12.82;62.14
39491;BME280;25175;50.140;18.990;2023-05-19T10:49:40;99343.06;;;12.51;61.75
39491;BME280;25175;50.140;18.990;2023-05-19T10:52:52;99397.63;;;12.96;61.91
39491;BME280;25175;50.140;18.990;2023-05-19T10:56:02;99408.97;;;12.96;61.40
39491;BME280;25175;50.140;18.990;2023-05-19T10:59:34;99403.94;;;12.95;62.11
39491;BME280;25175;50.140;18.990;2023-05-19T11:02:45;99369.88;;;12.80;62.32
39491;BME280;25175;50.140;18.990;2023-05-19T11:06:20;99395.06;;;13.02;61.55
39491;BME280;25175;50.140;18.990;2023-05-19T11:09:31;99398.69;;;13.08;61.53
39491;BME280;25175;50.140;18.990;2023-05-19T11:12:47;99389.19;;;13.13;61.50
39491;BME280;25175;50.140;18.990;2023-05-19T11:15:58;99400.13;;;13.17;61.70
39491;BME280;25175;50.140;18.990;2023-05-19T11:19:17;99383.28;;;13.18;61.44
39491;BME280;25175;50.140;18.990;2023-05-19T11:22:25;99392.00;;;13.18;61.55
39491;BME280;25175;50.140;18.990;2023-05-19T11:25:42;99369.66;;;12.88;60.64
39491;BME280;25175;50.140;18.990;2023-05-19T11:28:51;99396.88;;;13.15;60.81
39491;BME280;25175;50.140;18.990;2023-05-19T11:32:03;99392.00;;;13.12;61.11
39491;BME280;25175;50.140;18.990;2023-05-19T11:35:10;99406.19;;;13.24;61.63
39491;BME280;25175;50.140;18.990;2023-05-19T11:38:29;99406.00;;;13.32;60.86
39491;BME280;25175;50.140;18.990;2023-05-19T11:41:38;99401.75;;;13.37;61.19
39491;BME280;25175;50.140;18.990;2023-05-19T11:44:46;99403.75;;;13.42;61.60
39491;BME280;25175;50.140;18.990;2023-05-19T11:47:57;99396.88;;;13.47;61.44
39491;BME280;25175;50.140;18.990;2023-05-19T11:51:05;99352.25;;;13.20;61.42
39491;BME280;25175;50.140;18.990;2023-05-19T11:54:14;99409.25;;;13.53;61.39
39491;BME280;25175;50.140;18.990;2023-05-19T11:57:34;99405.78;;;13.59;61.12
39491;BME280;25175;50.140;18.990;2023-05-19T12:00:54;99409.41;;;13.65;60.35
39491;BME280;25175;50.140;18.990;2023-05-19T12:04:19;99389.13;;;13.65;60.93
39491;BME280;25175;50.140;18.990;2023-05-19T12:07:39;99402.69;;;13.82;60.75
39491;BME280;25175;50.140;18.990;2023-05-19T12:11:03;99410.22;;;13.85;60.30
39491;BME280;25175;50.140;18.990;2023-05-19T12:14:11;99407.97;;;13.88;60.46
39491;BME280;25175;50.140;18.990;2023-05-19T12:17:36;99395.59;;;13.89;60.05
39491;BME280;25175;50.140;18.990;2023-05-19T12:20:46;99395.19;;;13.92;59.81
39491;BME280;25175;50.140;18.990;2023-05-19T12:23:53;99389.09;;;13.91;59.67
39491;BME280;25175;50.140;18.990;2023-05-19T12:27:19;99393.53;;;13.91;59.88
39491;BME280;25175;50.140;18.990;2023-05-19T12:30:30;99381.78;;;13.87;59.59
39491;BME280;25175;50.140;18.990;2023-05-19T12:33:51;99382.41;;;13.89;59.84
39491;BME280;25175;50.140;18.990;2023-05-19T12:37:25;99370.44;;;13.93;60.10
39491;BME280;25175;50.140;18.990;2023-05-19T12:40:36;99339.63;;;13.67;59.74
39491;BME280;25175;50.140;18.990;2023-05-19T12:43:43;99379.38;;;13.92;59.90
39491;BME280;25175;50.140;18.990;2023-05-19T12:46:51;99324.22;;;13.58;59.88
39491;BME280;25175;50.140;18.990;2023-05-19T12:50:00;99374.47;;;14.02;59.75
39491;BME280;25175;50.140;18.990;2023-05-19T12:53:27;99381.34;;;14.03;59.20
39491;BME280;25175;50.140;18.990;2023-05-19T12:56:34;99376.09;;;14.03;59.17
39491;BME280;25175;50.140;18.990;2023-05-19T12:59:42;99380.97;;;14.06;59.67
39491;BME280;25175;50.140;18.990;2023-05-19T13:02:58;99372.41;;;14.04;59.42
39491;BME280;25175;50.140;18.990;2023-05-19T13:06:18;99365.91;;;14.06;59.57
39491;BME280;25175;50.140;18.990;2023-05-19T13:09:50;99367.94;;;14.11;59.54
39491;BME280;25175;50.140;18.990;2023-05-19T13:12:57;99362.22;;;14.14;60.01
39491;BME280;25175;50.140;18.990;2023-05-19T13:16:05;99356.94;;;14.14;60.14
39491;BME280;25175;50.140;18.990;2023-05-19T13:19:12;99362.59;;;14.24;59.29
39491;BME280;25175;50.140;18.990;2023-05-19T13:22:58;99363.03;;;14.21;58.68
39491;BME280;25175;50.140;18.990;2023-05-19T13:26:30;99366.91;;;14.18;58.91
39491;BME280;25175;50.140;18.990;2023-05-19T13:29:50;99343.19;;;14.05;58.77
39491;BME280;25175;50.140;18.990;2023-05-19T13:33:11;99364.66;;;14.15;59.04
39491;BME280;25175;50.140;18.990;2023-05-19T13:36:31;99370.16;;;14.14;59.29
39491;BME280;25175;50.140;18.990;2023-05-19T13:43:53;99356.50;;;14.23;59.50
39491;BME280;25175;50.140;18.990;2023-05-19T13:47:03;99363.19;;;14.26;59.26
39491;BME280;25175;50.140;18.990;2023-05-19T13:50:19;99344.31;;;14.22;59.08
39491;BME280;25175;50.140;18.990;2023-05-19T13:53:25;99349.56;;;14.35;59.02
39491;BME280;25175;50.140;18.990;2023-05-19T13:56:34;99354.41;;;14.38;59.12
39491;BME280;25175;50.140;18.990;2023-05-19T13:59:46;99353.19;;;14.41;59.06
39491;BME280;25175;50.140;18.990;2023-05-19T14:02:52;99356.63;;;14.41;59.06
39491;BME280;25175;50.140;18.990;2023-05-19T14:05:58;99350.13;;;14.44;58.86
39491;BME280;25175;50.140;18.990;2023-05-19T14:09:05;99354.78;;;14.42;58.65
39491;BME280;25175;50.140;18.990;2023-05-19T14:12:13;99356.47;;;14.30;59.42
39491;BME280;25175;50.140;18.990;2023-05-19T14:15:22;99358.84;;;14.44;59.03
39491;BME280;25175;50.140;18.990;2023-05-19T14:18:27;99354.00;;;14.41;59.12
39491;BME280;25175;50.140;18.990;2023-05-19T14:21:33;99363.16;;;14.32;58.96
39491;BME280;25175;50.140;18.990;2023-05-19T14:24:57;99370.72;;;14.29;59.66
39491;BME280;25175;50.140;18.990;2023-05-19T14:28:03;99368.66;;;14.31;59.43
39491;BME280;25175;50.140;18.990;2023-05-19T14:31:14;99370.72;;;14.29;59.50
39491;BME280;25175;50.140;18.990;2023-05-19T14:34:27;99369.09;;;14.28;59.02
39491;BME280;25175;50.140;18.990;2023-05-19T14:37:32;99372.94;;;14.32;59.24
39491;BME280;25175;50.140;18.990;2023-05-19T14:40:40;99377.19;;;14.33;58.99
39491;BME280;25175;50.140;18.990;2023-05-19T14:43:50;99368.44;;;14.39;59.64
39491;BME280;25175;50.140;18.990;2023-05-19T14:47:13;99370.63;;;14.42;59.45
39491;BME280;25175;50.140;18.990;2023-05-19T14:50:19;99368.84;;;14.36;58.93
39491;BME280;25175;50.140;18.990;2023-05-19T14:53:26;99372.88;;;14.38;59.22
39491;BME280;25175;50.140;18.990;2023-05-19T14:56:37;99374.38;;;14.28;59.46
39491;BME280;25175;50.140;18.990;2023-05-19T14:59:45;99370.50;;;14.30;59.75
39491;BME280;25175;50.140;18.990;2023-05-19T15:03:04;99373.34;;;14.29;59.49
39491;BME280;25175;50.140;18.990;2023-05-19T15:06:26;99362.81;;;14.22;59.36
39491;BME280;25175;50.140;18.990;2023-05-19T15:09:32;99364.66;;;14.22;59.54
39491;BME280;25175;50.140;18.990;2023-05-19T15:12:59;99372.97;;;14.19;59.44
39491;BME280;25175;50.140;18.990;2023-05-19T15:16:32;99364.47;;;14.10;59.83
39491;BME280;25175;50.140;18.990;2023-05-19T15:20:16;99359.22;;;14.04;59.78
39491;BME280;25175;50.140;18.990;2023-05-19T15:23:37;99362.09;;;14.02;59.94
39491;BME280;25175;50.140;18.990;2023-05-19T15:27:01;99363.72;;;13.97;60.30
39491;BME280;25175;50.140;18.990;2023-05-19T15:30:33;99348.94;;;13.83;60.04
39491;BME280;25175;50.140;18.990;2023-05-19T15:33:53;99367.78;;;13.93;60.12
39491;BME280;25175;50.140;18.990;2023-05-19T15:37:16;99359.06;;;13.92;60.13
39491;BME280;25175;50.140;18.990;2023-05-19T15:40:37;99365.56;;;13.96;59.94
39491;BME280;25175;50.140;18.990;2023-05-19T15:44:01;99366.75;;;14.00;60.36
39491;BME280;25175;50.140;18.990;2023-05-19T15:47:23;99348.31;;;13.94;59.74
39491;BME280;25175;50.140;18.990;2023-05-19T15:50:43;99338.75;;;13.93;59.93
39491;BME280;25175;50.140;18.990;2023-05-19T15:54:06;99354.00;;;13.97;60.19
39491;BME280;25175;50.140;18.990;2023-05-19T15:57:32;99273.59;;;13.36;59.97
39491;BME280;25175;50.140;18.990;2023-05-19T16:01:11;99355.00;;;13.90;60.21
39491;BME280;25175;50.140;18.990;2023-05-19T16:04:31;99375.50;;;13.88;60.57
39491;BME280;25175;50.140;18.990;2023-05-19T16:07:52;99357.44;;;13.85;60.58
39491;BME280;25175;50.140;18.990;2023-05-19T16:11:21;99363.09;;;13.88;60.54
39491;BME280;25175;50.140;18.990;2023-05-19T16:14:28;99346.28;;;13.83;60.55
39491;BME280;25175;50.140;18.990;2023-05-19T16:17:38;99366.78;;;13.94;60.77
39491;BME280;25175;50.140;18.990;2023-05-19T16:20:49;99361.91;;;13.97;60.99
39491;BME280;25175;50.140;18.990;2023-05-19T16:23:54;99375.28;;;14.02;60.83
39491;BME280;25175;50.140;18.990;2023-05-19T16:27:20;99372.84;;;14.01;60.93
39491;BME280;25175;50.140;18.990;2023-05-19T16:30:25;99365.13;;;13.99;60.98
39491;BME280;25175;50.140;18.990;2023-05-19T16:33:34;99370.41;;;13.99;60.88
39491;BME280;25175;50.140;18.990;2023-05-19T16:36:40;99386.88;;;13.95;61.24
39491;BME280;25175;50.140;18.990;2023-05-19T16:39:46;99371.44;;;13.92;61.46
39491;BME280;25175;50.140;18.990;2023-05-19T16:42:55;99371.47;;;13.85;61.47
39491;BME280;25175;50.140;18.990;2023-05-19T16:46:11;99376.31;;;13.82;61.43
39491;BME280;25175;50.140;18.990;2023-05-19T16:49:16;99367.41;;;13.83;61.75
39491;BME280;25175;50.140;18.990;2023-05-19T16:52:22;99374.09;;;13.85;61.93
39491;BME280;25175;50.140;18.990;2023-05-19T16:55:27;99375.91;;;13.85;61.87
39491;BME280;25175;50.140;18.990;2023-05-19T16:58:36;99375.91;;;13.78;61.93
39491;BME280;25175;50.140;18.990;2023-05-19T17:01:43;99373.09;;;13.73;61.74
39491;BME280;25175;50.140;18.990;2023-05-19T17:04:53;99381.44;;;13.70;61.99
39491;BME280;25175;50.140;18.990;2023-05-19T17:07:59;99378.97;;;13.69;62.14
39491;BME280;25175;50.140;18.990;2023-05-19T17:11:19;99378.59;;;13.65;62.23
39491;BME280;25175;50.140;18.990;2023-05-19T17:14:43;99382.25;;;13.64;62.44
39491;BME280;25175;50.140;18.990;2023-05-19T17:18:03;99381.44;;;13.64;62.50